createdAt,value
2018-09-18T00:00:41.325Z,14.40
2018-09-18T00:03:10.288Z,14.40
2018-09-18T00:05:38.713Z,14.40
2018-09-18T00:08:07.426Z,14.40
2018-09-18T00:10:36.527Z,14.40
2018-09-18T00:13:05.133Z,14.30
2018-09-18T00:15:33.510Z,14.30
2018-09-18T00:18:01.921Z,14.30
2018-09-18T00:20:30.326Z,14.30
2018-09-18T00:22:59.309Z,14.30
2018-09-18T00:25:27.928Z,14.30
2018-09-18T00:27:56.735Z,14.30
2018-09-18T00:30:25.504Z,14.20
2018-09-18T00:32:53.964Z,14.20
2018-09-18T00:35:22.563Z,14.30
2018-09-18T00:37:50.970Z,14.30
2018-09-18T00:40:20.009Z,14.30
2018-09-18T00:42:48.667Z,14.20
2018-09-18T00:45:17.216Z,14.20
2018-09-18T00:47:45.604Z,14.20
2018-09-18T00:50:14.239Z,14.10
2018-09-18T00:52:42.865Z,14.20
2018-09-18T00:55:12.023Z,14.10
2018-09-18T00:57:40.652Z,14.10
2018-09-18T01:00:09.097Z,14.10
2018-09-18T01:02:37.879Z,14.00
2018-09-18T01:05:06.504Z,14.00
2018-09-18T01:07:34.954Z,14.10
2018-09-18T01:10:03.682Z,14.00
2018-09-18T01:12:32.400Z,14.00
2018-09-18T01:15:00.927Z,14.00
2018-09-18T01:17:36.130Z,14.00
2018-09-18T01:20:04.700Z,14.00
2018-09-18T01:22:33.286Z,14.00
2018-09-18T01:25:01.953Z,14.00
2018-09-18T01:27:30.338Z,14.00
2018-09-18T01:29:58.736Z,14.00
2018-09-18T01:32:27.702Z,14.10
2018-09-18T01:34:56.129Z,14.10
2018-09-18T01:37:24.665Z,14.10
2018-09-18T01:39:53.329Z,14.10
2018-09-18T01:42:21.815Z,14.10
2018-09-18T01:44:50.879Z,14.10
2018-09-18T01:47:19.462Z,14.10
2018-09-18T01:49:47.883Z,14.00
2018-09-18T01:52:16.569Z,14.00
2018-09-18T01:54:45.167Z,14.00
2018-09-18T01:57:13.657Z,13.90
2018-09-18T01:59:42.274Z,13.90
2018-09-18T02:02:12.418Z,13.80
2018-09-18T02:04:40.913Z,13.80
2018-09-18T02:07:09.554Z,13.80
2018-09-18T02:09:38.634Z,13.70
2018-09-18T02:12:07.296Z,13.70
2018-09-18T02:14:35.705Z,13.70
2018-09-18T02:17:04.630Z,13.70
2018-09-18T02:19:33.025Z,13.60
2018-09-18T02:22:01.545Z,13.60
2018-09-18T02:24:30.381Z,13.60
2018-09-18T02:26:58.815Z,13.60
2018-09-18T02:29:27.459Z,13.50
2018-09-18T02:31:55.835Z,13.50
2018-09-18T02:34:24.608Z,13.50
2018-09-18T02:36:53.224Z,13.40
2018-09-18T02:39:21.607Z,13.40
2018-09-18T02:41:50.950Z,13.40
2018-09-18T02:44:19.368Z,13.40
2018-09-18T02:46:47.930Z,13.30
2018-09-18T02:49:16.347Z,13.30
2018-09-18T02:51:44.785Z,13.30
2018-09-18T02:54:13.359Z,13.30
2018-09-18T02:56:41.796Z,13.30
2018-09-18T02:59:10.354Z,13.30
2018-09-18T03:01:38.757Z,13.20
2018-09-18T03:04:07.143Z,13.30
2018-09-18T03:06:35.544Z,13.30
2018-09-18T03:09:05.829Z,13.30
2018-09-18T03:11:34.303Z,13.20
2018-09-18T03:14:03.245Z,13.20
2018-09-18T03:16:31.761Z,13.20
2018-09-18T03:19:00.383Z,13.20
2018-09-18T03:21:29.442Z,13.30
2018-09-18T03:23:58.345Z,13.30
2018-09-18T03:26:26.719Z,13.30
2018-09-18T03:28:56.063Z,13.30
2018-09-18T03:31:24.958Z,13.30
2018-09-18T03:33:53.499Z,13.30
2018-09-18T03:36:22.064Z,13.30
2018-09-18T03:38:51.433Z,13.30
2018-09-18T03:41:19.812Z,13.30
2018-09-18T03:43:48.932Z,13.30
2018-09-18T03:46:17.410Z,13.30
2018-09-18T03:48:46.127Z,13.30
2018-09-18T03:51:14.598Z,13.30
2018-09-18T03:53:43.058Z,13.30
2018-09-18T03:56:11.443Z,13.30
2018-09-18T03:58:40.311Z,13.30
2018-09-18T04:01:09.072Z,13.30
2018-09-18T04:03:37.719Z,13.20
2018-09-18T04:06:06.481Z,13.20
2018-09-18T04:08:34.917Z,13.10
2018-09-18T04:11:03.490Z,13.10
2018-09-18T04:13:31.924Z,13.10
2018-09-18T04:16:00.357Z,13.10
2018-09-18T04:18:28.971Z,13.00
2018-09-18T04:20:57.377Z,13.00
2018-09-18T04:23:25.907Z,12.90
2018-09-18T04:25:54.377Z,13.00
2018-09-18T04:28:23.027Z,13.00
2018-09-18T04:30:51.418Z,13.00
2018-09-18T04:33:20.320Z,12.90
2018-09-18T04:35:49.125Z,12.90
2018-09-18T04:38:17.559Z,12.90
2018-09-18T04:40:46.270Z,12.90
2018-09-18T04:43:14.716Z,12.90
2018-09-18T04:45:44.001Z,12.90
2018-09-18T04:48:12.606Z,12.90
2018-09-18T04:50:42.437Z,12.80
2018-09-18T04:53:11.179Z,12.80
2018-09-18T04:55:39.669Z,12.90
2018-09-18T04:58:08.561Z,12.90
2018-09-18T05:00:37.249Z,12.80
2018-09-18T05:03:05.737Z,12.90
2018-09-18T05:05:34.385Z,12.90
2018-09-18T05:08:03.023Z,12.90
2018-09-18T05:10:31.932Z,13.00
2018-09-18T05:13:00.892Z,13.00
2018-09-18T05:15:29.453Z,13.10
2018-09-18T05:17:58.128Z,13.10
2018-09-18T05:20:26.562Z,13.10
2018-09-18T05:22:55.076Z,13.10
2018-09-18T05:25:23.799Z,13.20
2018-09-18T05:27:53.260Z,13.20
2018-09-18T05:30:21.653Z,13.30
2018-09-18T05:32:50.223Z,13.30
2018-09-18T05:35:19.064Z,13.30
2018-09-18T05:37:47.677Z,13.40
2018-09-18T05:40:16.108Z,13.50
2018-09-18T05:42:44.539Z,13.50
2018-09-18T05:45:13.784Z,13.60
2018-09-18T05:47:42.402Z,13.60
2018-09-18T05:50:11.004Z,13.70
2018-09-18T05:52:40.048Z,13.70
2018-09-18T05:55:08.458Z,13.80
2018-09-18T05:57:37.082Z,13.90
2018-09-18T06:02:41.231Z,14.10
2018-09-18T06:05:10.093Z,14.10
2018-09-18T06:07:39.106Z,14.20
2018-09-18T06:10:07.683Z,14.40
2018-09-18T06:12:36.591Z,14.40
2018-09-18T06:15:05.387Z,14.60
2018-09-18T06:17:34.059Z,14.70
2018-09-18T06:20:05.748Z,14.90
2018-09-18T06:22:34.188Z,15.00
2018-09-18T06:25:02.601Z,15.10
2018-09-18T06:27:31.886Z,15.20
2018-09-18T06:30:00.442Z,15.40
2018-09-18T06:32:29.384Z,15.60
2018-09-18T06:34:58.233Z,15.70
2018-09-18T06:37:26.997Z,15.90
2018-09-18T06:39:55.441Z,16.30
2018-09-18T06:42:23.875Z,16.60
2018-09-18T06:44:53.281Z,17.10
2018-09-18T06:47:22.304Z,17.40
2018-09-18T06:49:51.263Z,17.70
2018-09-18T06:52:20.034Z,18.10
2018-09-18T06:54:48.487Z,18.40
2018-09-18T06:57:17.184Z,18.90
2018-09-18T06:59:46.007Z,19.20
2018-09-18T07:02:14.980Z,19.80
2018-09-18T07:04:43.992Z,20.00
2018-09-18T07:07:12.468Z,20.60
2018-09-18T07:09:41.233Z,21.40
2018-09-18T07:12:09.988Z,22.40
2018-09-18T07:14:38.503Z,23.70
2018-09-18T07:17:07.211Z,25.10
2018-09-18T07:19:35.802Z,26.30
2018-09-18T07:22:04.243Z,27.80
2018-09-18T07:24:33.108Z,28.70
2018-09-18T07:27:01.888Z,29.70
2018-09-18T07:29:30.525Z,30.10
2018-09-18T07:31:59.045Z,31.20
2018-09-18T07:34:27.869Z,30.90
2018-09-18T07:36:56.415Z,31.10
2018-09-18T07:39:25.558Z,31.20
2018-09-18T07:41:54.153Z,31.70
2018-09-18T07:44:22.643Z,32.10
2018-09-18T07:46:51.662Z,32.20
2018-09-18T07:49:20.080Z,32.40
2018-09-18T07:51:48.980Z,32.50
2018-09-18T07:54:17.662Z,32.50
2018-09-18T07:56:46.209Z,31.60
2018-09-18T07:59:14.738Z,31.70
2018-09-18T08:01:43.317Z,31.70
2018-09-18T08:04:11.787Z,32.00
2018-09-18T08:06:40.198Z,32.40
2018-09-18T08:09:10.478Z,33.00
2018-09-18T08:11:39.331Z,33.10
2018-09-18T08:14:08.321Z,32.70
2018-09-18T08:16:36.794Z,32.00
2018-09-18T08:19:06.049Z,31.60
2018-09-18T08:21:34.747Z,32.10
2018-09-18T08:24:03.635Z,32.30
2018-09-18T08:26:32.033Z,32.10
2018-09-18T08:29:01.066Z,31.80
2018-09-18T08:31:30.140Z,31.60
2018-09-18T08:33:58.795Z,31.00
2018-09-18T08:36:27.253Z,31.60
2018-09-18T08:38:56.071Z,31.60
2018-09-18T08:41:24.606Z,32.00
2018-09-18T08:43:53.603Z,32.60
2018-09-18T08:46:22.078Z,32.40
2018-09-18T08:48:56.526Z,32.20
2018-09-18T08:51:25.537Z,32.20
2018-09-18T08:53:54.158Z,32.40
2018-09-18T08:56:24.026Z,32.20
2018-09-18T08:58:52.724Z,32.70
2018-09-18T09:01:21.704Z,33.10
2018-09-18T09:03:50.191Z,32.80
2018-09-18T09:06:18.883Z,32.30
2018-09-18T09:08:47.390Z,32.60
2018-09-18T09:11:15.663Z,32.70
2018-09-18T09:13:44.771Z,33.00
2018-09-18T09:16:13.286Z,33.40
2018-09-18T09:18:41.968Z,33.80
2018-09-18T09:21:11.540Z,33.60
2018-09-18T09:23:40.210Z,32.90
2018-09-18T09:26:08.776Z,33.10
2018-09-18T09:28:37.656Z,33.60
2018-09-18T09:31:06.263Z,33.90
2018-09-18T09:33:35.243Z,33.70
2018-09-18T09:36:03.849Z,33.70
2018-09-18T09:38:32.517Z,33.70
2018-09-18T09:41:01.480Z,33.80
2018-09-18T09:43:30.091Z,33.80
2018-09-18T09:45:59.369Z,33.90
2018-09-18T09:48:31.983Z,33.90
2018-09-18T09:51:01.534Z,33.60
2018-09-18T09:53:30.059Z,33.60
2018-09-18T09:55:58.680Z,33.80
2018-09-18T09:58:27.355Z,33.70
2018-09-18T10:01:01.535Z,33.60
2018-09-18T10:03:30.469Z,33.70
2018-09-18T10:05:59.349Z,33.70
2018-09-18T10:08:28.090Z,34.00
2018-09-18T10:10:56.953Z,34.40
2018-09-18T10:13:25.473Z,34.90
2018-09-18T10:15:54.397Z,35.10
2018-09-18T10:18:23.282Z,34.90
2018-09-18T10:20:51.893Z,33.60
2018-09-18T10:23:21.393Z,33.90
2018-09-18T10:25:49.813Z,34.20
2018-09-18T10:28:18.213Z,34.40
2018-09-18T10:30:46.748Z,34.00
2018-09-18T10:33:15.497Z,34.00
2018-09-18T10:35:44.603Z,34.20
2018-09-18T10:38:13.132Z,34.20
2018-09-18T10:40:41.741Z,34.30
2018-09-18T10:43:10.232Z,34.40
2018-09-18T10:45:38.694Z,33.90
2018-09-18T10:48:07.118Z,34.00
2018-09-18T10:50:35.969Z,33.90
2018-09-18T10:53:04.647Z,33.90
2018-09-18T10:55:33.164Z,34.10
2018-09-18T10:58:01.951Z,34.00
2018-09-18T11:00:30.343Z,33.80
2018-09-18T11:02:58.860Z,33.80
2018-09-18T11:05:27.263Z,33.70
2018-09-18T11:07:56.107Z,33.30
2018-09-18T11:10:24.481Z,33.40
2018-09-18T11:12:53.117Z,32.90
2018-09-18T11:15:21.742Z,32.40
2018-09-18T11:17:50.078Z,32.30
2018-09-18T11:20:19.770Z,32.10
2018-09-18T11:22:48.391Z,31.70
2018-09-18T11:25:17.237Z,31.40
2018-09-18T11:27:48.521Z,30.90
2018-09-18T11:30:16.908Z,30.70
2018-09-18T11:32:45.433Z,30.50
2018-09-18T11:35:14.603Z,30.30
2018-09-18T11:37:43.103Z,30.20
2018-09-18T11:40:12.046Z,30.20
2018-09-18T11:42:40.706Z,30.10
2018-09-18T11:45:09.258Z,30.10
2018-09-18T11:47:38.074Z,29.70
2018-09-18T11:50:06.495Z,29.50
2018-09-18T11:52:35.236Z,29.50
2018-09-18T11:55:03.796Z,29.70
2018-09-18T11:57:32.358Z,29.80
2018-09-18T12:00:01.556Z,29.70
2018-09-18T12:02:30.874Z,29.80
2018-09-18T12:04:59.532Z,29.90
2018-09-18T12:07:27.992Z,29.90
2018-09-18T12:09:57.075Z,29.70
2018-09-18T12:12:25.640Z,29.60
2018-09-18T12:14:54.561Z,29.30
2018-09-18T12:17:23.506Z,29.40
2018-09-18T12:19:51.940Z,29.20
2018-09-18T12:22:21.267Z,29.10
2018-09-18T12:24:50.322Z,28.60
2018-09-18T12:27:19.734Z,28.40
2018-09-18T12:29:48.714Z,28.30
2018-09-18T12:32:17.781Z,28.50
2018-09-18T12:34:46.845Z,28.70
2018-09-18T12:37:15.324Z,28.80
2018-09-18T12:39:43.879Z,28.70
2018-09-18T12:42:12.733Z,28.50
2018-09-18T12:44:41.494Z,28.40
2018-09-18T12:47:09.995Z,28.50
2018-09-18T12:49:38.611Z,28.40
2018-09-18T12:52:06.976Z,28.50
2018-09-18T12:54:35.787Z,28.60
2018-09-18T12:57:04.728Z,28.60
2018-09-18T12:59:38.045Z,28.60
2018-09-18T13:02:06.870Z,28.60
2018-09-18T13:04:35.320Z,28.40
2018-09-18T13:07:04.426Z,28.70
2018-09-18T13:09:32.944Z,28.60
2018-09-18T13:12:01.814Z,28.70
2018-09-18T13:14:32.195Z,28.80
2018-09-18T13:17:01.781Z,28.70
2018-09-18T13:19:30.970Z,28.60
2018-09-18T13:22:02.452Z,28.50
2018-09-18T13:24:31.969Z,28.30
2018-09-18T13:27:01.641Z,28.30
2018-09-18T13:29:31.307Z,28.00
2018-09-18T13:32:00.737Z,28.00
2018-09-18T13:34:30.322Z,28.20
2018-09-18T13:36:58.773Z,28.40
2018-09-18T13:39:27.392Z,28.50
2018-09-18T13:41:55.969Z,28.30
2018-09-18T13:44:24.961Z,28.10
2018-09-18T13:46:54.632Z,28.10
2018-09-18T13:49:35.666Z,28.00
2018-09-18T13:52:04.827Z,28.00
2018-09-18T13:54:35.014Z,27.60
2018-09-18T13:57:04.218Z,27.60
2018-09-18T13:59:33.579Z,27.60
2018-09-18T14:02:02.977Z,27.60
2018-09-18T14:04:32.564Z,27.70
2018-09-18T14:07:14.265Z,27.70
2018-09-18T14:09:44.066Z,27.80
2018-09-18T14:12:12.674Z,27.80
2018-09-18T14:14:41.928Z,27.80
2018-09-18T14:17:10.452Z,27.80
2018-09-18T14:19:39.144Z,27.80
2018-09-18T14:22:07.722Z,27.80
2018-09-18T14:24:36.233Z,27.80
2018-09-18T14:27:05.334Z,27.90
2018-09-18T14:29:34.131Z,28.00
2018-09-18T14:32:03.393Z,28.00
2018-09-18T14:34:31.834Z,28.10
2018-09-18T14:37:00.717Z,28.00
2018-09-18T14:39:29.785Z,28.00
2018-09-18T14:41:58.173Z,27.90
2018-09-18T14:44:26.592Z,27.90
2018-09-18T14:46:55.080Z,27.80
2018-09-18T14:49:23.714Z,27.80
2018-09-18T14:51:53.016Z,27.70
2018-09-18T14:54:21.441Z,27.70
2018-09-18T14:56:49.929Z,27.70
2018-09-18T14:59:18.351Z,27.70
2018-09-18T15:01:46.985Z,27.70
2018-09-18T15:04:16.555Z,27.70
2018-09-18T15:06:45.336Z,27.60
2018-09-18T15:09:13.966Z,27.60
2018-09-18T15:11:42.916Z,27.60
2018-09-18T15:14:11.642Z,27.60
2018-09-18T15:16:40.543Z,27.60
2018-09-18T15:19:09.585Z,27.60
2018-09-18T15:21:38.550Z,27.60
2018-09-18T15:24:07.086Z,27.60
2018-09-18T15:26:35.834Z,27.50
2018-09-18T15:29:04.569Z,27.60
2018-09-18T15:31:33.652Z,27.50
2018-09-18T15:34:02.239Z,27.50
2018-09-18T15:36:30.704Z,27.40
2018-09-18T15:38:59.598Z,27.30
2018-09-18T15:41:28.027Z,27.30
2018-09-18T15:43:56.724Z,27.20
2018-09-18T15:46:25.159Z,27.10
2018-09-18T15:48:53.710Z,26.90
2018-09-18T15:51:22.271Z,26.90
2018-09-18T15:53:50.854Z,26.90
2018-09-18T15:56:19.626Z,26.70
2018-09-18T15:58:48.367Z,26.60
2018-09-18T16:01:17.377Z,26.50
2018-09-18T16:03:46.373Z,26.20
2018-09-18T16:06:15.058Z,26.00
2018-09-18T16:08:43.601Z,25.90
2018-09-18T16:11:12.046Z,25.60
2018-09-18T16:13:40.524Z,25.40
2018-09-18T16:16:09.191Z,25.20
2018-09-18T16:18:41.560Z,25.00
2018-09-18T16:21:09.988Z,24.90
2018-09-18T16:23:38.381Z,24.70
2018-09-18T16:26:06.987Z,24.60
2018-09-18T16:28:35.498Z,24.40
2018-09-18T16:31:04.184Z,24.30
2018-09-18T16:33:32.965Z,24.20
2018-09-18T16:36:01.362Z,24.00
2018-09-18T16:38:29.866Z,23.90
2018-09-18T16:40:58.576Z,23.70
2018-09-18T16:43:27.804Z,23.60
2018-09-18T16:45:56.248Z,23.50
2018-09-18T16:48:25.119Z,23.40
2018-09-18T16:50:53.591Z,23.30
2018-09-18T16:53:21.993Z,23.20
2018-09-18T16:55:51.342Z,23.00
2018-09-18T16:58:20.477Z,23.00
2018-09-18T17:00:49.046Z,22.90
2018-09-18T17:03:17.640Z,22.70
2018-09-18T17:05:46.101Z,22.60
2018-09-18T17:08:15.238Z,22.50
2018-09-18T17:10:44.226Z,22.40
2018-09-18T17:13:12.711Z,22.30
2018-09-18T17:15:41.245Z,22.10
2018-09-18T17:18:10.208Z,22.10
2018-09-18T17:20:39.435Z,22.10
2018-09-18T17:23:07.931Z,21.90
2018-09-18T17:25:37.236Z,21.80
2018-09-18T17:28:05.972Z,21.70
2018-09-18T17:30:34.642Z,21.60
2018-09-18T17:33:03.226Z,21.40
2018-09-18T17:35:31.721Z,21.40
2018-09-18T17:38:00.144Z,21.40
2018-09-18T17:40:29.014Z,21.40
2018-09-18T17:42:57.596Z,21.40
2018-09-18T17:45:26.129Z,21.50
2018-09-18T17:47:54.560Z,21.50
2018-09-18T17:50:23.122Z,21.60
2018-09-18T17:52:51.745Z,21.60
2018-09-18T17:55:20.551Z,21.60
2018-09-18T17:57:48.996Z,21.60
2018-09-18T18:00:17.596Z,21.50
2018-09-18T18:02:46.175Z,21.40
2018-09-18T18:05:14.624Z,21.30
2018-09-18T18:07:43.457Z,21.20
2018-09-18T18:10:12.330Z,21.10
2018-09-18T18:12:41.114Z,21.00
2018-09-18T18:15:09.810Z,20.90
2018-09-18T18:17:38.707Z,20.80
2018-09-18T18:20:07.277Z,20.70
2018-09-18T18:22:36.174Z,20.70
2018-09-18T18:25:05.109Z,20.60
2018-09-18T18:27:33.858Z,20.50
2018-09-18T18:30:02.705Z,20.40
2018-09-18T18:32:31.745Z,20.40
2018-09-18T18:35:00.161Z,20.30
2018-09-18T18:37:28.631Z,20.30
2018-09-18T18:39:57.060Z,20.20
2018-09-18T18:42:26.210Z,20.20
2018-09-18T18:44:54.847Z,20.10
2018-09-18T18:47:23.294Z,20.00
2018-09-18T18:49:52.366Z,19.90
2018-09-18T18:52:21.009Z,19.80
2018-09-18T18:54:49.689Z,19.70
2018-09-18T18:57:18.100Z,19.60
2018-09-18T18:59:46.517Z,19.60
2018-09-18T19:02:15.948Z,19.50
2018-09-18T19:04:44.417Z,19.40
2018-09-18T19:07:13.139Z,19.40
2018-09-18T19:09:41.797Z,19.40
2018-09-18T19:12:10.701Z,19.30
2018-09-18T19:14:39.735Z,19.20
2018-09-18T19:17:08.209Z,19.20
2018-09-18T19:19:36.714Z,19.10
2018-09-18T19:22:06.181Z,19.00
2018-09-18T19:24:35.196Z,19.00
2018-09-18T19:27:03.984Z,18.90
2018-09-18T19:29:34.253Z,18.90
2018-09-18T19:32:02.841Z,18.70
2018-09-18T19:34:31.458Z,18.70
2018-09-18T19:37:00.549Z,18.70
2018-09-18T19:39:29.301Z,18.70
2018-09-18T19:41:57.715Z,18.60
2018-09-18T19:44:26.601Z,18.60
2018-09-18T19:46:55.233Z,18.50
2018-09-18T19:49:24.044Z,18.50
2018-09-18T19:51:53.336Z,18.40
2018-09-18T19:54:21.783Z,18.30
2018-09-18T19:56:50.178Z,18.30
2018-09-18T19:59:18.838Z,18.30
2018-09-18T20:01:47.223Z,18.20
2018-09-18T20:04:15.682Z,18.20
2018-09-18T20:06:44.384Z,18.10
2018-09-18T20:09:13.742Z,18.10
2018-09-18T20:11:42.229Z,18.10
2018-09-18T20:14:10.687Z,18.10
2018-09-18T20:16:40.161Z,18.30
2018-09-18T20:19:08.944Z,18.30
2018-09-18T20:21:37.467Z,18.30
2018-09-18T20:24:05.890Z,18.20
2018-09-18T20:26:35.136Z,18.20
2018-09-18T20:29:05.669Z,18.10
2018-09-18T20:31:34.522Z,18.10
2018-09-18T20:34:03.000Z,18.10
2018-09-18T20:36:31.629Z,18.10
2018-09-18T20:39:00.209Z,18.10
2018-09-18T20:41:28.720Z,18.00
2018-09-18T20:43:57.333Z,18.00
2018-09-18T20:46:25.961Z,18.00
2018-09-18T20:48:55.306Z,18.00
2018-09-18T20:51:24.063Z,17.90
2018-09-18T20:53:52.961Z,17.90
2018-09-18T20:56:21.514Z,17.80
2018-09-18T20:58:49.900Z,17.80
2018-09-18T21:01:18.360Z,17.70
2018-09-18T21:03:47.387Z,17.60
2018-09-18T21:06:15.822Z,17.60
2018-09-18T21:08:44.692Z,17.50
2018-09-18T21:11:13.245Z,17.40
2018-09-18T21:13:41.644Z,17.40
2018-09-18T21:16:10.285Z,17.30
2018-09-18T21:18:38.997Z,17.30
2018-09-18T21:21:07.419Z,17.20
2018-09-18T21:23:36.059Z,17.20
2018-09-18T21:26:08.156Z,17.20
2018-09-18T21:28:37.012Z,17.20
2018-09-18T21:31:05.568Z,17.20
2018-09-18T21:33:33.997Z,17.20
2018-09-18T21:36:02.575Z,17.10
2018-09-18T21:38:31.996Z,17.10
2018-09-18T21:41:00.683Z,17.00
2018-09-18T21:43:29.745Z,17.00
2018-09-18T21:45:58.413Z,17.00
2018-09-18T21:48:26.850Z,16.90
2018-09-18T21:50:55.627Z,16.90
2018-09-18T21:53:24.734Z,16.90
2018-09-18T21:55:53.354Z,16.90
2018-09-18T21:58:21.959Z,17.00
2018-09-18T22:00:50.540Z,17.00
2018-09-18T22:03:19.852Z,17.00
2018-09-18T22:05:48.299Z,17.00
2018-09-18T22:08:16.757Z,17.00
2018-09-18T22:10:45.328Z,17.00
2018-09-18T22:13:13.775Z,17.00
2018-09-18T22:15:42.383Z,17.10
2018-09-18T22:18:10.797Z,17.00
2018-09-18T22:20:39.655Z,17.10
2018-09-18T22:23:08.144Z,17.10
2018-09-18T22:25:36.529Z,17.10
2018-09-18T22:28:04.889Z,17.10
2018-09-18T22:30:33.691Z,17.10
2018-09-18T22:33:02.125Z,17.10
2018-09-18T22:35:30.620Z,17.20
2018-09-18T22:37:59.024Z,17.10
2018-09-18T22:40:27.467Z,17.20
2018-09-18T22:42:56.039Z,17.20
2018-09-18T22:45:24.578Z,17.20
2018-09-18T22:47:53.746Z,17.00
2018-09-18T22:50:22.314Z,16.80
2018-09-18T22:52:50.886Z,16.60
2018-09-18T22:55:19.416Z,16.50
2018-09-18T22:57:48.256Z,16.40
2018-09-18T23:00:16.684Z,16.30
2018-09-18T23:02:45.445Z,16.30
2018-09-18T23:05:13.872Z,16.20
2018-09-18T23:07:42.244Z,16.10
2018-09-18T23:10:10.834Z,16.00
2018-09-18T23:12:39.641Z,15.90
2018-09-18T23:15:08.091Z,15.90
2018-09-18T23:17:36.812Z,15.90
2018-09-18T23:20:05.237Z,15.90
2018-09-18T23:22:34.201Z,15.80
2018-09-18T23:25:03.433Z,15.80
2018-09-18T23:27:32.031Z,15.80
2018-09-18T23:30:00.516Z,15.80
2018-09-18T23:32:29.379Z,15.80
2018-09-18T23:34:57.762Z,15.70
2018-09-18T23:37:26.518Z,15.70
2018-09-18T23:39:55.071Z,15.70
2018-09-18T23:42:23.707Z,15.70
2018-09-18T23:44:52.594Z,15.70
2018-09-18T23:47:21.048Z,15.70
2018-09-18T23:49:49.425Z,15.70
2018-09-18T23:52:17.966Z,15.80
2018-09-18T23:54:46.437Z,15.80
2018-09-18T23:57:15.532Z,15.70
2018-09-18T23:59:43.930Z,15.70
